sensor_id;sensor_type;location;lat;lon;timestamp;P1;durP1;ratioP1;P2;durP2;ratioP2
58137;SDS011;43955;47.362;18.930;2023-05-21T00:00:28;11.40;;;6.82;;
58137;SDS011;43955;47.362;18.930;2023-05-21T00:02:56;12.43;;;7.80;;
58137;SDS011;43955;47.362;18.930;2023-05-21T00:05:25;10.50;;;7.15;;
58137;SDS011;43955;47.362;18.930;2023-05-21T00:07:52;11.93;;;7.30;;
58137;SDS011;43955;47.362;18.930;2023-05-21T00:10:21;13.45;;;7.40;;
58137;SDS011;43955;47.362;18.930;2023-05-21T00:12:48;10.73;;;6.90;;
58137;SDS011;43955;47.362;18.930;2023-05-21T00:15:15;59.33;;;10.95;;
58137;SDS011;43955;47.362;18.930;2023-05-21T00:17:43;29.12;;;10.27;;
58137;SDS011;43955;47.362;18.930;2023-05-21T00:20:11;15.20;;;7.55;;
58137;SDS011;43955;47.362;18.930;2023-05-21T00:22:39;10.60;;;6.72;;
58137;SDS011;43955;47.362;18.930;2023-05-21T00:25:09;15.60;;;7.20;;
58137;SDS011;43955;47.362;18.930;2023-05-21T00:27:37;14.00;;;7.28;;
58137;SDS011;43955;47.362;18.930;2023-05-21T00:30:05;16.35;;;7.10;;
58137;SDS011;43955;47.362;18.930;2023-05-21T00:32:33;22.92;;;7.82;;
58137;SDS011;43955;47.362;18.930;2023-05-21T00:35:00;20.17;;;7.97;;
58137;SDS011;43955;47.362;18.930;2023-05-21T00:37:28;25.08;;;7.97;;
58137;SDS011;43955;47.362;18.930;2023-05-21T00:40:00;19.27;;;7.72;;
58137;SDS011;43955;47.362;18.930;2023-05-21T00:42:28;23.00;;;8.88;;
58137;SDS011;43955;47.362;18.930;2023-05-21T00:44:56;27.45;;;8.25;;
58137;SDS011;43955;47.362;18.930;2023-05-21T00:47:24;15.63;;;7.45;;
58137;SDS011;43955;47.362;18.930;2023-05-21T00:49:55;27.42;;;8.55;;
58137;SDS011;43955;47.362;18.930;2023-05-21T00:52:22;15.63;;;7.03;;
58137;SDS011;43955;47.362;18.930;2023-05-21T00:54:52;10.48;;;6.50;;
58137;SDS011;43955;47.362;18.930;2023-05-21T00:57:21;16.02;;;6.87;;
58137;SDS011;43955;47.362;18.930;2023-05-21T00:59:51;18.83;;;7.12;;
58137;SDS011;43955;47.362;18.930;2023-05-21T01:02:19;9.60;;;6.72;;
58137;SDS011;43955;47.362;18.930;2023-05-21T01:04:46;13.13;;;7.00;;
58137;SDS011;43955;47.362;18.930;2023-05-21T01:07:13;10.63;;;6.95;;
58137;SDS011;43955;47.362;18.930;2023-05-21T01:09:41;15.77;;;6.97;;
58137;SDS011;43955;47.362;18.930;2023-05-21T01:12:08;11.80;;;6.32;;
58137;SDS011;43955;47.362;18.930;2023-05-21T01:14:37;9.90;;;6.85;;
58137;SDS011;43955;47.362;18.930;2023-05-21T01:17:05;14.00;;;7.53;;
58137;SDS011;43955;47.362;18.930;2023-05-21T01:19:36;12.75;;;6.78;;
58137;SDS011;43955;47.362;18.930;2023-05-21T01:22:05;11.85;;;7.60;;
58137;SDS011;43955;47.362;18.930;2023-05-21T01:24:33;12.93;;;7.05;;
58137;SDS011;43955;47.362;18.930;2023-05-21T01:27:01;11.05;;;7.18;;
58137;SDS011;43955;47.362;18.930;2023-05-21T01:29:31;12.98;;;7.12;;
58137;SDS011;43955;47.362;18.930;2023-05-21T01:32:10;10.10;;;6.18;;
58137;SDS011;43955;47.362;18.930;2023-05-21T01:37:26;10.48;;;6.37;;
58137;SDS011;43955;47.362;18.930;2023-05-21T01:39:59;11.85;;;6.93;;
58137;SDS011;43955;47.362;18.930;2023-05-21T01:42:31;11.57;;;6.87;;
58137;SDS011;43955;47.362;18.930;2023-05-21T01:45:00;12.57;;;7.03;;
58137;SDS011;43955;47.362;18.930;2023-05-21T01:47:32;10.85;;;6.82;;
58137;SDS011;43955;47.362;18.930;2023-05-21T01:50:00;12.35;;;6.47;;
58137;SDS011;43955;47.362;18.930;2023-05-21T01:52:29;10.07;;;6.87;;
58137;SDS011;43955;47.362;18.930;2023-05-21T01:54:57;14.40;;;6.72;;
58137;SDS011;43955;47.362;18.930;2023-05-21T01:57:26;11.93;;;7.22;;
58137;SDS011;43955;47.362;18.930;2023-05-21T01:59:53;14.27;;;7.03;;
58137;SDS011;43955;47.362;18.930;2023-05-21T02:02:21;12.32;;;7.07;;
58137;SDS011;43955;47.362;18.930;2023-05-21T02:04:48;12.37;;;6.25;;
58137;SDS011;43955;47.362;18.930;2023-05-21T02:07:16;12.55;;;6.68;;
58137;SDS011;43955;47.362;18.930;2023-05-21T02:09:44;12.75;;;7.00;;
58137;SDS011;43955;47.362;18.930;2023-05-21T02:12:11;12.40;;;7.87;;
58137;SDS011;43955;47.362;18.930;2023-05-21T02:14:39;11.55;;;7.03;;
58137;SDS011;43955;47.362;18.930;2023-05-21T02:17:06;10.82;;;6.37;;
58137;SDS011;43955;47.362;18.930;2023-05-21T02:19:34;9.40;;;6.70;;
58137;SDS011;43955;47.362;18.930;2023-05-21T02:22:01;32.35;;;7.55;;
58137;SDS011;43955;47.362;18.930;2023-05-21T02:24:29;9.27;;;6.37;;
58137;SDS011;43955;47.362;18.930;2023-05-21T02:26:57;11.82;;;6.40;;
58137;SDS011;43955;47.362;18.930;2023-05-21T02:29:24;15.27;;;7.30;;
58137;SDS011;43955;47.362;18.930;2023-05-21T02:31:51;10.23;;;6.50;;
58137;SDS011;43955;47.362;18.930;2023-05-21T02:34:19;14.70;;;6.37;;
58137;SDS011;43955;47.362;18.930;2023-05-21T02:36:47;10.20;;;6.28;;
58137;SDS011;43955;47.362;18.930;2023-05-21T02:39:14;12.15;;;6.32;;
58137;SDS011;43955;47.362;18.930;2023-05-21T02:41:41;73.03;;;11.23;;
58137;SDS011;43955;47.362;18.930;2023-05-21T02:44:09;19.33;;;6.68;;
58137;SDS011;43955;47.362;18.930;2023-05-21T02:46:36;10.27;;;6.28;;
58137;SDS011;43955;47.362;18.930;2023-05-21T02:49:04;11.65;;;6.97;;
58137;SDS011;43955;47.362;18.930;2023-05-21T02:51:31;10.85;;;6.18;;
58137;SDS011;43955;47.362;18.930;2023-05-21T02:53:58;12.45;;;6.75;;
58137;SDS011;43955;47.362;18.930;2023-05-21T02:56:26;13.40;;;6.68;;
58137;SDS011;43955;47.362;18.930;2023-05-21T02:58:53;10.88;;;6.60;;
58137;SDS011;43955;47.362;18.930;2023-05-21T03:01:21;10.80;;;6.55;;
58137;SDS011;43955;47.362;18.930;2023-05-21T03:03:48;9.70;;;6.07;;
58137;SDS011;43955;47.362;18.930;2023-05-21T03:06:16;43.87;;;8.68;;
58137;SDS011;43955;47.362;18.930;2023-05-21T03:08:43;24.70;;;7.55;;
58137;SDS011;43955;47.362;18.930;2023-05-21T03:11:10;14.10;;;7.18;;
58137;SDS011;43955;47.362;18.930;2023-05-21T03:13:38;59.22;;;9.20;;
58137;SDS011;43955;47.362;18.930;2023-05-21T03:16:05;16.30;;;7.10;;
58137;SDS011;43955;47.362;18.930;2023-05-21T03:18:33;22.10;;;7.37;;
58137;SDS011;43955;47.362;18.930;2023-05-21T03:21:00;13.18;;;6.75;;
58137;SDS011;43955;47.362;18.930;2023-05-21T03:23:27;10.70;;;5.90;;
58137;SDS011;43955;47.362;18.930;2023-05-21T03:25:55;11.55;;;7.00;;
58137;SDS011;43955;47.362;18.930;2023-05-21T03:28:22;28.08;;;8.02;;
58137;SDS011;43955;47.362;18.930;2023-05-21T03:30:50;31.98;;;7.15;;
58137;SDS011;43955;47.362;18.930;2023-05-21T03:33:19;17.20;;;7.25;;
58137;SDS011;43955;47.362;18.930;2023-05-21T03:35:46;11.15;;;6.35;;
58137;SDS011;43955;47.362;18.930;2023-05-21T03:38:14;43.28;;;8.73;;
58137;SDS011;43955;47.362;18.930;2023-05-21T03:40:41;49.85;;;9.18;;
58137;SDS011;43955;47.362;18.930;2023-05-21T03:43:09;18.75;;;6.78;;
58137;SDS011;43955;47.362;18.930;2023-05-21T03:45:36;11.02;;;6.40;;
58137;SDS011;43955;47.362;18.930;2023-05-21T03:48:05;10.95;;;6.18;;
58137;SDS011;43955;47.362;18.930;2023-05-21T03:50:33;15.10;;;6.53;;
58137;SDS011;43955;47.362;18.930;2023-05-21T03:53:00;13.52;;;6.55;;
58137;SDS011;43955;47.362;18.930;2023-05-21T03:55:28;8.50;;;5.68;;
58137;SDS011;43955;47.362;18.930;2023-05-21T03:57:57;9.75;;;6.25;;
58137;SDS011;43955;47.362;18.930;2023-05-21T04:00:24;9.98;;;5.50;;
58137;SDS011;43955;47.362;18.930;2023-05-21T04:02:52;9.65;;;5.68;;
58137;SDS011;43955;47.362;18.930;2023-05-21T04:05:20;10.85;;;5.97;;
58137;SDS011;43955;47.362;18.930;2023-05-21T04:07:47;16.70;;;6.72;;
58137;SDS011;43955;47.362;18.930;2023-05-21T04:10:16;11.45;;;6.22;;
58137;SDS011;43955;47.362;18.930;2023-05-21T04:12:43;10.73;;;5.95;;
58137;SDS011;43955;47.362;18.930;2023-05-21T04:15:10;10.77;;;5.43;;
58137;SDS011;43955;47.362;18.930;2023-05-21T04:17:38;9.73;;;5.90;;
58137;SDS011;43955;47.362;18.930;2023-05-21T04:20:06;9.07;;;5.25;;
58137;SDS011;43955;47.362;18.930;2023-05-21T04:22:34;11.95;;;5.28;;
58137;SDS011;43955;47.362;18.930;2023-05-21T04:25:01;7.90;;;5.22;;
58137;SDS011;43955;47.362;18.930;2023-05-21T04:27:29;9.10;;;5.72;;
58137;SDS011;43955;47.362;18.930;2023-05-21T04:29:56;9.30;;;5.25;;
58137;SDS011;43955;47.362;18.930;2023-05-21T04:32:24;8.98;;;5.10;;
58137;SDS011;43955;47.362;18.930;2023-05-21T04:34:51;10.18;;;5.87;;
58137;SDS011;43955;47.362;18.930;2023-05-21T04:37:19;7.78;;;5.28;;
58137;SDS011;43955;47.362;18.930;2023-05-21T04:39:46;10.30;;;5.47;;
58137;SDS011;43955;47.362;18.930;2023-05-21T04:42:13;8.30;;;5.00;;
58137;SDS011;43955;47.362;18.930;2023-05-21T04:44:41;8.70;;;5.12;;
58137;SDS011;43955;47.362;18.930;2023-05-21T04:47:10;7.37;;;4.93;;
58137;SDS011;43955;47.362;18.930;2023-05-21T04:49:40;8.75;;;4.62;;
58137;SDS011;43955;47.362;18.930;2023-05-21T04:52:08;8.20;;;5.72;;
58137;SDS011;43955;47.362;18.930;2023-05-21T04:54:35;8.10;;;5.12;;
58137;SDS011;43955;47.362;18.930;2023-05-21T04:57:05;7.62;;;4.95;;
58137;SDS011;43955;47.362;18.930;2023-05-21T04:59:33;11.95;;;5.43;;
58137;SDS011;43955;47.362;18.930;2023-05-21T05:02:00;7.22;;;4.90;;
58137;SDS011;43955;47.362;18.930;2023-05-21T05:04:28;8.65;;;4.62;;
58137;SDS011;43955;47.362;18.930;2023-05-21T05:06:55;7.93;;;5.10;;
58137;SDS011;43955;47.362;18.930;2023-05-21T05:09:23;18.75;;;5.60;;
58137;SDS011;43955;47.362;18.930;2023-05-21T05:11:51;8.25;;;4.70;;
58137;SDS011;43955;47.362;18.930;2023-05-21T05:14:18;11.45;;;5.32;;
58137;SDS011;43955;47.362;18.930;2023-05-21T05:16:46;7.12;;;4.97;;
58137;SDS011;43955;47.362;18.930;2023-05-21T05:19:16;6.37;;;4.35;;
58137;SDS011;43955;47.362;18.930;2023-05-21T05:21:43;7.07;;;5.12;;
58137;SDS011;43955;47.362;18.930;2023-05-21T05:24:11;8.25;;;5.03;;
58137;SDS011;43955;47.362;18.930;2023-05-21T05:26:38;7.53;;;5.10;;
58137;SDS011;43955;47.362;18.930;2023-05-21T05:29:05;7.55;;;4.32;;
58137;SDS011;43955;47.362;18.930;2023-05-21T05:31:33;7.37;;;4.35;;
58137;SDS011;43955;47.362;18.930;2023-05-21T05:34:00;8.27;;;4.85;;
58137;SDS011;43955;47.362;18.930;2023-05-21T05:36:28;6.05;;;4.53;;
58137;SDS011;43955;47.362;18.930;2023-05-21T05:38:55;7.37;;;4.72;;
58137;SDS011;43955;47.362;18.930;2023-05-21T05:41:23;10.55;;;4.97;;
58137;SDS011;43955;47.362;18.930;2023-05-21T05:43:50;8.80;;;4.50;;
58137;SDS011;43955;47.362;18.930;2023-05-21T05:46:18;7.12;;;4.80;;
58137;SDS011;43955;47.362;18.930;2023-05-21T05:48:46;6.75;;;4.55;;
58137;SDS011;43955;47.362;18.930;2023-05-21T05:51:13;9.82;;;5.40;;
58137;SDS011;43955;47.362;18.930;2023-05-21T05:53:44;6.07;;;4.43;;
58137;SDS011;43955;47.362;18.930;2023-05-21T05:56:11;8.18;;;3.92;;
58137;SDS011;43955;47.362;18.930;2023-05-21T05:58:39;5.50;;;4.05;;
58137;SDS011;43955;47.362;18.930;2023-05-21T06:01:07;5.68;;;4.00;;
58137;SDS011;43955;47.362;18.930;2023-05-21T06:03:35;13.18;;;4.10;;
58137;SDS011;43955;47.362;18.930;2023-05-21T06:06:04;9.80;;;4.57;;
58137;SDS011;43955;47.362;18.930;2023-05-21T06:08:32;5.62;;;4.57;;
58137;SDS011;43955;47.362;18.930;2023-05-21T06:11:04;8.00;;;4.65;;
58137;SDS011;43955;47.362;18.930;2023-05-21T06:13:31;8.60;;;3.90;;
58137;SDS011;43955;47.362;18.930;2023-05-21T06:15:58;6.87;;;4.35;;
58137;SDS011;43955;47.362;18.930;2023-05-21T06:18:26;7.30;;;4.35;;
58137;SDS011;43955;47.362;18.930;2023-05-21T06:20:53;5.90;;;3.72;;
58137;SDS011;43955;47.362;18.930;2023-05-21T06:23:21;6.35;;;4.07;;
58137;SDS011;43955;47.362;18.930;2023-05-21T06:25:48;47.05;;;7.07;;
58137;SDS011;43955;47.362;18.930;2023-05-21T06:28:16;5.80;;;3.92;;
58137;SDS011;43955;47.362;18.930;2023-05-21T06:30:44;7.47;;;4.62;;
58137;SDS011;43955;47.362;18.930;2023-05-21T06:33:11;6.32;;;4.25;;
58137;SDS011;43955;47.362;18.930;2023-05-21T06:35:39;6.78;;;4.28;;
58137;SDS011;43955;47.362;18.930;2023-05-21T06:38:06;10.75;;;5.00;;
58137;SDS011;43955;47.362;18.930;2023-05-21T06:40:34;6.97;;;4.25;;
58137;SDS011;43955;47.362;18.930;2023-05-21T06:43:02;8.32;;;4.45;;
58137;SDS011;43955;47.362;18.930;2023-05-21T06:48:05;7.87;;;4.30;;
58137;SDS011;43955;47.362;18.930;2023-05-21T06:50:32;7.50;;;4.35;;
58137;SDS011;43955;47.362;18.930;2023-05-21T06:53:00;8.93;;;4.05;;
58137;SDS011;43955;47.362;18.930;2023-05-21T06:55:27;11.90;;;5.12;;
58137;SDS011;43955;47.362;18.930;2023-05-21T06:57:56;9.18;;;4.10;;
58137;SDS011;43955;47.362;18.930;2023-05-21T07:00:23;11.82;;;4.50;;
58137;SDS011;43955;47.362;18.930;2023-05-21T07:02:52;9.75;;;5.10;;
58137;SDS011;43955;47.362;18.930;2023-05-21T07:05:20;7.80;;;4.75;;
58137;SDS011;43955;47.362;18.930;2023-05-21T07:07:47;7.68;;;4.47;;
58137;SDS011;43955;47.362;18.930;2023-05-21T07:10:14;7.72;;;4.45;;
58137;SDS011;43955;47.362;18.930;2023-05-21T07:12:42;6.12;;;4.47;;
58137;SDS011;43955;47.362;18.930;2023-05-21T07:15:09;7.65;;;4.47;;
58137;SDS011;43955;47.362;18.930;2023-05-21T07:17:37;7.35;;;4.20;;
58137;SDS011;43955;47.362;18.930;2023-05-21T07:20:05;7.65;;;4.30;;
58137;SDS011;43955;47.362;18.930;2023-05-21T07:22:37;18.73;;;4.85;;
58137;SDS011;43955;47.362;18.930;2023-05-21T07:25:06;6.68;;;4.80;;
58137;SDS011;43955;47.362;18.930;2023-05-21T07:27:34;8.00;;;4.28;;
58137;SDS011;43955;47.362;18.930;2023-05-21T07:30:02;7.25;;;4.37;;
58137;SDS011;43955;47.362;18.930;2023-05-21T07:32:30;6.47;;;4.50;;
58137;SDS011;43955;47.362;18.930;2023-05-21T07:34:58;7.78;;;4.82;;
58137;SDS011;43955;47.362;18.930;2023-05-21T07:37:29;8.93;;;4.50;;
58137;SDS011;43955;47.362;18.930;2023-05-21T07:39:56;7.35;;;4.60;;
58137;SDS011;43955;47.362;18.930;2023-05-21T07:42:24;9.07;;;4.12;;
58137;SDS011;43955;47.362;18.930;2023-05-21T07:44:52;7.50;;;4.55;;
58137;SDS011;43955;47.362;18.930;2023-05-21T07:47:21;6.82;;;4.50;;
58137;SDS011;43955;47.362;18.930;2023-05-21T07:49:49;7.18;;;4.05;;
58137;SDS011;43955;47.362;18.930;2023-05-21T07:52:16;5.45;;;4.00;;
58137;SDS011;43955;47.362;18.930;2023-05-21T07:54:44;10.38;;;5.25;;
58137;SDS011;43955;47.362;18.930;2023-05-21T07:57:12;13.93;;;5.53;;
58137;SDS011;43955;47.362;18.930;2023-05-21T07:59:40;7.32;;;4.78;;
58137;SDS011;43955;47.362;18.930;2023-05-21T08:02:08;13.18;;;5.20;;
58137;SDS011;43955;47.362;18.930;2023-05-21T08:04:35;5.90;;;4.15;;
58137;SDS011;43955;47.362;18.930;2023-05-21T08:07:07;6.65;;;4.50;;
58137;SDS011;43955;47.362;18.930;2023-05-21T08:09:35;8.70;;;4.60;;
58137;SDS011;43955;47.362;18.930;2023-05-21T08:12:03;9.57;;;5.10;;
58137;SDS011;43955;47.362;18.930;2023-05-21T08:14:31;7.75;;;4.70;;
58137;SDS011;43955;47.362;18.930;2023-05-21T08:16:58;10.98;;;4.72;;
58137;SDS011;43955;47.362;18.930;2023-05-21T08:19:26;8.95;;;4.53;;
58137;SDS011;43955;47.362;18.930;2023-05-21T08:21:53;7.07;;;4.65;;
58137;SDS011;43955;47.362;18.930;2023-05-21T08:24:22;6.22;;;4.97;;
58137;SDS011;43955;47.362;18.930;2023-05-21T08:26:49;7.05;;;4.80;;
58137;SDS011;43955;47.362;18.930;2023-05-21T08:29:17;6.45;;;4.72;;
58137;SDS011;43955;47.362;18.930;2023-05-21T08:31:44;7.10;;;5.05;;
58137;SDS011;43955;47.362;18.930;2023-05-21T08:34:12;7.70;;;5.20;;
58137;SDS011;43955;47.362;18.930;2023-05-21T08:36:39;9.95;;;5.57;;
58137;SDS011;43955;47.362;18.930;2023-05-21T08:39:10;18.37;;;5.18;;
58137;SDS011;43955;47.362;18.930;2023-05-21T08:41:38;6.68;;;4.65;;
58137;SDS011;43955;47.362;18.930;2023-05-21T08:44:10;5.65;;;4.20;;
58137;SDS011;43955;47.362;18.930;2023-05-21T08:46:38;9.88;;;4.82;;
58137;SDS011;43955;47.362;18.930;2023-05-21T08:49:09;5.05;;;3.97;;
58137;SDS011;43955;47.362;18.930;2023-05-21T08:51:38;6.80;;;4.57;;
58137;SDS011;43955;47.362;18.930;2023-05-21T08:54:05;7.05;;;4.68;;
58137;SDS011;43955;47.362;18.930;2023-05-21T08:56:34;7.40;;;4.97;;
58137;SDS011;43955;47.362;18.930;2023-05-21T08:59:02;9.80;;;5.15;;
58137;SDS011;43955;47.362;18.930;2023-05-21T09:01:30;7.32;;;4.90;;
58137;SDS011;43955;47.362;18.930;2023-05-21T09:03:59;10.35;;;5.80;;
58137;SDS011;43955;47.362;18.930;2023-05-21T09:06:46;10.15;;;4.70;;
58137;SDS011;43955;47.362;18.930;2023-05-21T09:09:26;7.40;;;4.20;;
58137;SDS011;43955;47.362;18.930;2023-05-21T09:11:59;10.48;;;4.95;;
58137;SDS011;43955;47.362;18.930;2023-05-21T09:14:27;6.32;;;4.70;;
58137;SDS011;43955;47.362;18.930;2023-05-21T09:16:55;8.80;;;4.78;;
58137;SDS011;43955;47.362;18.930;2023-05-21T09:19:23;5.62;;;4.22;;
58137;SDS011;43955;47.362;18.930;2023-05-21T09:21:51;9.20;;;4.65;;
58137;SDS011;43955;47.362;18.930;2023-05-21T09:24:21;5.78;;;3.90;;
58137;SDS011;43955;47.362;18.930;2023-05-21T09:26:49;7.72;;;5.07;;
58137;SDS011;43955;47.362;18.930;2023-05-21T09:29:17;6.78;;;4.43;;
58137;SDS011;43955;47.362;18.930;2023-05-21T09:31:45;9.00;;;4.20;;
58137;SDS011;43955;47.362;18.930;2023-05-21T09:34:13;9.82;;;5.10;;
58137;SDS011;43955;47.362;18.930;2023-05-21T09:36:40;32.33;;;5.72;;
58137;SDS011;43955;47.362;18.930;2023-05-21T09:39:07;31.33;;;6.82;;
58137;SDS011;43955;47.362;18.930;2023-05-21T09:41:37;9.85;;;4.47;;
58137;SDS011;43955;47.362;18.930;2023-05-21T09:44:04;7.60;;;5.18;;
58137;SDS011;43955;47.362;18.930;2023-05-21T09:46:36;7.37;;;4.68;;
58137;SDS011;43955;47.362;18.930;2023-05-21T09:49:05;15.60;;;5.50;;
58137;SDS011;43955;47.362;18.930;2023-05-21T09:51:33;7.43;;;4.30;;
58137;SDS011;43955;47.362;18.930;2023-05-21T09:54:04;5.30;;;3.92;;
58137;SDS011;43955;47.362;18.930;2023-05-21T09:56:32;6.37;;;4.57;;
58137;SDS011;43955;47.362;18.930;2023-05-21T09:59:01;6.90;;;4.53;;
58137;SDS011;43955;47.362;18.930;2023-05-21T10:01:30;6.12;;;4.20;;
58137;SDS011;43955;47.362;18.930;2023-05-21T10:04:02;8.20;;;4.25;;
58137;SDS011;43955;47.362;18.930;2023-05-21T10:06:36;5.50;;;4.07;;
58137;SDS011;43955;47.362;18.930;2023-05-21T10:09:08;6.85;;;4.43;;
58137;SDS011;43955;47.362;18.930;2023-05-21T10:11:36;5.53;;;4.32;;
58137;SDS011;43955;47.362;18.930;2023-05-21T10:14:08;8.52;;;4.00;;
58137;SDS011;43955;47.362;18.930;2023-05-21T10:16:37;6.75;;;4.57;;
58137;SDS011;43955;47.362;18.930;2023-05-21T10:19:05;7.60;;;4.65;;
58137;SDS011;43955;47.362;18.930;2023-05-21T10:21:36;7.62;;;4.80;;
58137;SDS011;43955;47.362;18.930;2023-05-21T10:24:06;6.95;;;4.55;;
58137;SDS011;43955;47.362;18.930;2023-05-21T10:26:34;6.57;;;4.15;;
58137;SDS011;43955;47.362;18.930;2023-05-21T10:29:02;12.50;;;4.65;;
58137;SDS011;43955;47.362;18.930;2023-05-21T10:31:30;8.18;;;4.53;;
58137;SDS011;43955;47.362;18.930;2023-05-21T10:33:59;5.32;;;4.10;;
58137;SDS011;43955;47.362;18.930;2023-05-21T10:36:27;7.32;;;4.68;;
58137;SDS011;43955;47.362;18.930;2023-05-21T10:38:58;11.65;;;5.30;;
58137;SDS011;43955;47.362;18.930;2023-05-21T10:41:26;19.80;;;5.10;;
58137;SDS011;43955;47.362;18.930;2023-05-21T10:46:57;6.12;;;4.00;;
58137;SDS011;43955;47.362;18.930;2023-05-21T10:52:13;8.32;;;3.75;;
58137;SDS011;43955;47.362;18.930;2023-05-21T10:57:46;5.75;;;4.50;;
58137;SDS011;43955;47.362;18.930;2023-05-21T11:00:33;12.23;;;4.00;;
58137;SDS011;43955;47.362;18.930;2023-05-21T11:03:01;8.73;;;3.92;;
58137;SDS011;43955;47.362;18.930;2023-05-21T11:05:39;14.57;;;5.10;;
58137;SDS011;43955;47.362;18.930;2023-05-21T11:08:17;6.37;;;4.05;;
58137;SDS011;43955;47.362;18.930;2023-05-21T11:10:54;8.18;;;4.35;;
58137;SDS011;43955;47.362;18.930;2023-05-21T11:13:25;6.20;;;3.95;;
58137;SDS011;43955;47.362;18.930;2023-05-21T11:21:10;7.45;;;4.28;;
58137;SDS011;43955;47.362;18.930;2023-05-21T11:24:03;7.45;;;4.30;;
58137;SDS011;43955;47.362;18.930;2023-05-21T11:29:14;4.93;;;3.58;;
58137;SDS011;43955;47.362;18.930;2023-05-21T11:31:44;6.35;;;4.12;;
58137;SDS011;43955;47.362;18.930;2023-05-21T11:34:13;5.62;;;4.12;;
58137;SDS011;43955;47.362;18.930;2023-05-21T11:36:47;5.37;;;3.62;;
58137;SDS011;43955;47.362;18.930;2023-05-21T11:39:16;11.55;;;4.62;;
58137;SDS011;43955;47.362;18.930;2023-05-21T11:41:51;9.23;;;4.37;;
58137;SDS011;43955;47.362;18.930;2023-05-21T11:44:20;6.12;;;3.78;;
58137;SDS011;43955;47.362;18.930;2023-05-21T11:47:07;6.22;;;4.37;;
58137;SDS011;43955;47.362;18.930;2023-05-21T11:49:36;5.60;;;4.22;;
58137;SDS011;43955;47.362;18.930;2023-05-21T11:52:04;6.65;;;4.28;;
58137;SDS011;43955;47.362;18.930;2023-05-21T11:54:33;11.00;;;4.75;;
58137;SDS011;43955;47.362;18.930;2023-05-21T11:57:06;7.57;;;4.37;;
58137;SDS011;43955;47.362;18.930;2023-05-21T11:59:34;5.93;;;4.25;;
58137;SDS011;43955;47.362;18.930;2023-05-21T12:02:02;7.12;;;4.40;;
58137;SDS011;43955;47.362;18.930;2023-05-21T12:04:30;6.15;;;4.10;;
58137;SDS011;43955;47.362;18.930;2023-05-21T12:07:02;5.85;;;4.28;;
58137;SDS011;43955;47.362;18.930;2023-05-21T12:09:31;5.17;;;4.30;;
58137;SDS011;43955;47.362;18.930;2023-05-21T12:12:25;6.05;;;4.12;;
58137;SDS011;43955;47.362;18.930;2023-05-21T12:17:36;7.40;;;4.05;;
58137;SDS011;43955;47.362;18.930;2023-05-21T12:20:03;5.37;;;4.15;;
58137;SDS011;43955;47.362;18.930;2023-05-21T12:22:34;6.40;;;4.37;;
58137;SDS011;43955;47.362;18.930;2023-05-21T12:25:02;5.40;;;4.30;;
58137;SDS011;43955;47.362;18.930;2023-05-21T12:27:30;4.75;;;3.85;;
58137;SDS011;43955;47.362;18.930;2023-05-21T12:30:00;14.55;;;6.32;;
58137;SDS011;43955;47.362;18.930;2023-05-21T12:32:27;7.10;;;4.55;;
58137;SDS011;43955;47.362;18.930;2023-05-21T12:34:55;5.72;;;4.53;;
58137;SDS011;43955;47.362;18.930;2023-05-21T12:39:54;7.25;;;4.70;;
58137;SDS011;43955;47.362;18.930;2023-05-21T12:44:53;8.35;;;4.10;;
58137;SDS011;43955;47.362;18.930;2023-05-21T12:47:24;8.23;;;4.40;;
58137;SDS011;43955;47.362;18.930;2023-05-21T12:49:53;26.65;;;6.28;;
58137;SDS011;43955;47.362;18.930;2023-05-21T12:52:23;11.45;;;4.90;;
58137;SDS011;43955;47.362;18.930;2023-05-21T12:54:52;6.40;;;3.78;;
58137;SDS011;43955;47.362;18.930;2023-05-21T12:57:58;7.60;;;4.18;;
58137;SDS011;43955;47.362;18.930;2023-05-21T13:00:14;7.57;;;4.40;;
58137;SDS011;43955;47.362;18.930;2023-05-21T13:02:50;7.75;;;4.70;;
58137;SDS011;43955;47.362;18.930;2023-05-21T13:05:17;9.00;;;4.60;;
58137;SDS011;43955;47.362;18.930;2023-05-21T13:07:45;7.25;;;4.78;;
58137;SDS011;43955;47.362;18.930;2023-05-21T13:10:14;5.62;;;4.25;;
58137;SDS011;43955;47.362;18.930;2023-05-21T13:12:44;8.55;;;4.00;;
58137;SDS011;43955;47.362;18.930;2023-05-21T13:15:11;7.55;;;4.75;;
58137;SDS011;43955;47.362;18.930;2023-05-21T13:17:39;5.72;;;4.43;;
58137;SDS011;43955;47.362;18.930;2023-05-21T13:20:10;5.95;;;4.93;;
58137;SDS011;43955;47.362;18.930;2023-05-21T13:22:42;5.93;;;3.97;;
58137;SDS011;43955;47.362;18.930;2023-05-21T13:25:17;5.18;;;4.20;;
58137;SDS011;43955;47.362;18.930;2023-05-21T13:27:47;6.40;;;4.57;;
58137;SDS011;43955;47.362;18.930;2023-05-21T13:30:15;9.05;;;4.97;;
58137;SDS011;43955;47.362;18.930;2023-05-21T13:32:43;5.10;;;4.25;;
58137;SDS011;43955;47.362;18.930;2023-05-21T13:35:11;5.93;;;4.62;;
58137;SDS011;43955;47.362;18.930;2023-05-21T13:37:38;8.80;;;4.60;;
58137;SDS011;43955;47.362;18.930;2023-05-21T13:40:09;5.37;;;3.90;;
58137;SDS011;43955;47.362;18.930;2023-05-21T13:42:38;6.25;;;4.28;;
58137;SDS011;43955;47.362;18.930;2023-05-21T13:45:07;6.22;;;3.78;;
58137;SDS011;43955;47.362;18.930;2023-05-21T13:47:35;8.48;;;4.82;;
58137;SDS011;43955;47.362;18.930;2023-05-21T13:50:07;8.23;;;4.75;;
58137;SDS011;43955;47.362;18.930;2023-05-21T13:52:35;5.15;;;4.62;;
58137;SDS011;43955;47.362;18.930;2023-05-21T13:55:02;8.38;;;4.55;;
58137;SDS011;43955;47.362;18.930;2023-05-21T13:57:30;5.43;;;4.10;;
58137;SDS011;43955;47.362;18.930;2023-05-21T13:59:58;8.38;;;4.53;;
58137;SDS011;43955;47.362;18.930;2023-05-21T14:02:26;6.82;;;4.62;;
58137;SDS011;43955;47.362;18.930;2023-05-21T14:04:54;9.27;;;5.10;;
58137;SDS011;43955;47.362;18.930;2023-05-21T14:07:21;7.37;;;4.70;;
58137;SDS011;43955;47.362;18.930;2023-05-21T14:09:48;4.68;;;4.12;;
58137;SDS011;43955;47.362;18.930;2023-05-21T14:12:16;5.57;;;4.20;;
58137;SDS011;43955;47.362;18.930;2023-05-21T14:14:43;9.88;;;4.65;;
58137;SDS011;43955;47.362;18.930;2023-05-21T14:17:11;27.77;;;5.65;;
58137;SDS011;43955;47.362;18.930;2023-05-21T14:19:39;6.62;;;4.55;;
58137;SDS011;43955;47.362;18.930;2023-05-21T14:22:06;6.37;;;4.55;;
58137;SDS011;43955;47.362;18.930;2023-05-21T14:24:34;10.13;;;5.25;;
58137;SDS011;43955;47.362;18.930;2023-05-21T14:27:01;5.72;;;3.87;;
58137;SDS011;43955;47.362;18.930;2023-05-21T14:29:28;8.10;;;4.15;;
58137;SDS011;43955;47.362;18.930;2023-05-21T14:31:55;7.28;;;4.22;;
58137;SDS011;43955;47.362;18.930;2023-05-21T14:34:23;7.60;;;4.20;;
58137;SDS011;43955;47.362;18.930;2023-05-21T14:36:50;6.53;;;4.45;;
58137;SDS011;43955;47.362;18.930;2023-05-21T14:39:17;6.22;;;4.53;;
58137;SDS011;43955;47.362;18.930;2023-05-21T14:41:45;6.47;;;4.30;;
58137;SDS011;43955;47.362;18.930;2023-05-21T14:44:12;6.57;;;4.90;;
58137;SDS011;43955;47.362;18.930;2023-05-21T14:46:39;8.65;;;5.03;;
58137;SDS011;43955;47.362;18.930;2023-05-21T14:49:07;8.00;;;4.78;;
58137;SDS011;43955;47.362;18.930;2023-05-21T14:51:34;5.68;;;4.40;;
58137;SDS011;43955;47.362;18.930;2023-05-21T14:54:01;8.02;;;4.40;;
58137;SDS011;43955;47.362;18.930;2023-05-21T14:56:29;8.05;;;4.53;;
58137;SDS011;43955;47.362;18.930;2023-05-21T14:58:56;9.02;;;4.20;;
58137;SDS011;43955;47.362;18.930;2023-05-21T15:01:23;18.00;;;14.57;;
58137;SDS011;43955;47.362;18.930;2023-05-21T15:03:51;6.07;;;4.72;;
58137;SDS011;43955;47.362;18.930;2023-05-21T15:06:18;8.52;;;4.40;;